Terminal Aerodrome Forecast
Issued by NWS

Home | Current Version | Previous Version | Text Only | Print | Product List | Glossary On
Versions: 1 2 3 4 5 6 7 8 9 10 11 12 13 14 15 16 17 18 19 20 21
608
FTAK31 PAJN 241131
TAFAPG
TAF
PAPG 241131Z 2412/2512 VRB04KT 5SM -SHRA BR FEW018 BKN025 OVC050
      TEMPO 2412/2416 3SM SHRA BR SCT004 OVC010
     FM241800 VRB04KT P6SM -SHRA SCT020 OVC035
     FM250800 04004KT P6SM VCSH FEW007 SCT035 PROB30 2508/2512 2SM
      -DZ BR OVC007
      AMD LTD TO CLD VIS AND WIND 2412/2415=

USA.gov is the U.S. government's official web portal to all federal, state and local government web resources and services.